Dudley, Missouri
Current Conditions -  °F | °C
As of 12:16 AM on Friday 19 Dec 2014 (Local Time) from KPOF Reporting Station
Overcast Overcast  
Wind Chill: 32°   Ceiling: 2800
Heat Index: 36°   Visibility: 9mi
Dew Point: 31°   Wind: 5mph
Humidity: 82%   Direction: 20°NNE
Pressure: 30.27"   Gusts: NA
Location:  36.79°N, 90.09°W
Report Text: KPOF 190616Z AUTO 02004KT 9SM BKN028 OVC033 02/M01 A3027 RMK AO2 T00221006
Loading
Personal Weather Stations






























Interactive Weather Map New forecast layout! Learn more

10-Day Weather Forecast

Advertisements
Track Severe Weather on mobile